createdAt,value
2023-04-01T00:00:37.761Z,6.29
2023-04-01T00:01:39.425Z,6.31
2023-04-01T00:02:41.809Z,6.30
2023-04-01T00:03:43.869Z,6.26
2023-04-01T00:04:45.714Z,6.32
2023-04-01T00:05:47.513Z,6.25
2023-04-01T00:06:49.128Z,6.24
2023-04-01T00:07:51.204Z,6.22
2023-04-01T00:08:54.069Z,6.30
2023-04-01T00:09:57.001Z,6.32
2023-04-01T00:10:58.813Z,6.30
2023-04-01T00:12:00.594Z,6.24
2023-04-01T00:13:02.211Z,6.32
2023-04-01T00:14:03.902Z,6.29
2023-04-01T00:15:08.340Z,6.32
2023-04-01T00:16:21.140Z,6.27
2023-04-01T00:17:24.118Z,6.29
2023-04-01T00:18:26.090Z,6.26
2023-04-01T00:19:27.718Z,6.33
2023-04-01T00:20:30.387Z,6.35
2023-04-01T00:21:32.083Z,6.33
2023-04-01T00:22:34.877Z,6.33
2023-04-01T00:23:37.011Z,6.36
2023-04-01T00:24:39.531Z,6.31
2023-04-01T00:25:41.116Z,6.30
2023-04-01T00:26:43.432Z,6.35
2023-04-01T00:27:45.385Z,6.31
2023-04-01T00:28:47.343Z,6.34
2023-04-01T00:29:49.164Z,6.36
2023-04-01T00:30:50.864Z,6.34
2023-04-01T00:31:52.582Z,6.33
2023-04-01T00:32:54.693Z,6.28
2023-04-01T00:33:57.214Z,6.27
2023-04-01T00:35:00.496Z,6.32
2023-04-01T00:36:13.066Z,6.35
2023-04-01T00:37:14.833Z,6.31
2023-04-01T00:38:17.882Z,6.31
2023-04-01T00:39:20.471Z,6.31
2023-04-01T00:40:32.447Z,6.33
2023-04-01T00:41:34.026Z,6.37
2023-04-01T00:42:35.681Z,6.39
2023-04-01T00:43:37.482Z,6.37
2023-04-01T00:44:39.394Z,6.37
2023-04-01T00:45:43.836Z,6.35
2023-04-01T00:46:45.484Z,6.41
2023-04-01T00:47:47.376Z,6.39
2023-04-01T00:48:53.935Z,6.49
2023-04-01T00:49:56.064Z,6.53
2023-04-01T00:50:57.631Z,6.49
2023-04-01T00:52:01.130Z,6.54
2023-04-01T00:53:03.527Z,6.56
2023-04-01T00:54:05.457Z,6.57
2023-04-01T00:55:08.358Z,6.58
2023-04-01T00:56:27.951Z,6.58
2023-04-01T00:57:33.336Z,6.57
2023-04-01T00:58:39.470Z,6.55
2023-04-01T00:59:44.421Z,6.48
2023-04-01T01:00:47.872Z,6.42
2023-04-01T01:01:49.629Z,6.49
2023-04-01T01:02:51.941Z,6.45
2023-04-01T01:03:57.095Z,6.44
2023-04-01T01:04:58.643Z,6.42
2023-04-01T01:06:04.947Z,6.44
2023-04-01T01:07:38.133Z,6.42
2023-04-01T01:08:53.913Z,6.41
2023-04-01T01:10:07.160Z,6.47
2023-04-01T01:11:11.578Z,6.46
2023-04-01T01:12:17.226Z,6.47
2023-04-01T01:13:37.476Z,6.49
2023-04-01T01:14:42.733Z,6.52
2023-04-01T01:15:47.469Z,6.56
2023-04-01T01:16:57.365Z,6.53
2023-04-01T01:17:59.047Z,6.50
2023-04-01T01:19:13.632Z,6.51
2023-04-01T01:20:48.946Z,6.42
2023-04-01T01:22:01.973Z,6.49
2023-04-01T01:23:30.990Z,6.42
2023-04-01T01:24:42.434Z,6.42
2023-04-01T01:25:53.063Z,6.45
2023-04-01T01:27:32.970Z,6.43
2023-04-01T01:28:37.529Z,6.33
2023-04-01T01:29:45.060Z,6.29
2023-04-01T01:31:16.544Z,6.29
2023-04-01T01:32:23.791Z,6.32
2023-04-01T01:33:31.430Z,6.32
2023-04-01T01:34:57.022Z,6.23
2023-04-01T01:36:00.905Z,6.21
2023-04-01T01:37:08.231Z,6.31
2023-04-01T01:38:15.313Z,6.31
2023-04-01T01:39:21.435Z,6.31
2023-04-01T01:40:23.391Z,6.34
2023-04-01T01:41:27.521Z,6.34
2023-04-01T01:42:30.467Z,6.34
2023-04-01T01:43:36.755Z,6.29
2023-04-01T01:44:39.226Z,6.34
2023-04-01T01:45:42.144Z,6.34
2023-04-01T01:46:45.990Z,6.32
2023-04-01T01:47:48.615Z,6.34
2023-04-01T01:48:51.724Z,6.32
2023-04-01T01:49:54.507Z,6.30
2023-04-01T01:50:56.387Z,6.26
2023-04-01T01:51:58.449Z,6.27
2023-04-01T01:53:12.253Z,6.22
2023-04-01T01:54:15.666Z,6.25
2023-04-01T01:55:32.416Z,6.24
2023-04-01T01:56:36.345Z,6.21
2023-04-01T01:57:39.569Z,6.19
2023-04-01T01:58:52.545Z,6.18
2023-04-01T01:59:59.894Z,6.14
2023-04-01T02:01:05.691Z,6.12
2023-04-01T02:02:09.098Z,6.06
2023-04-01T02:03:12.126Z,6.00
2023-04-01T02:04:15.910Z,5.98
2023-04-01T02:05:24.011Z,6.02
2023-04-01T02:06:28.973Z,6.05
2023-04-01T02:07:34.233Z,6.06
2023-04-01T02:09:03.941Z,6.06
2023-04-01T02:10:06.701Z,6.10
2023-04-01T02:11:13.955Z,6.09
2023-04-01T02:12:18.607Z,6.06
2023-04-01T02:13:23.178Z,6.04
2023-04-01T02:14:28.607Z,6.05
2023-04-01T02:15:32.591Z,6.00
2023-04-01T02:16:44.572Z,6.03
2023-04-01T02:17:47.149Z,5.95
2023-04-01T02:18:51.342Z,5.97
2023-04-01T02:19:53.159Z,5.91
2023-04-01T02:20:58.202Z,5.97
2023-04-01T02:22:02.472Z,5.92
2023-04-01T02:23:04.614Z,5.90
2023-04-01T02:24:10.300Z,5.90
2023-04-01T02:25:14.374Z,5.90
2023-04-01T02:26:16.449Z,5.90
2023-04-01T02:27:18.247Z,5.93
2023-04-01T02:28:21.530Z,5.91
2023-04-01T02:29:26.358Z,5.83
2023-04-01T02:30:30.293Z,5.83
2023-04-01T02:31:32.810Z,5.77
2023-04-01T02:32:34.653Z,5.77
2023-04-01T02:33:37.346Z,5.73
2023-04-01T02:34:38.972Z,5.67
2023-04-01T02:35:40.617Z,5.64
2023-04-01T02:36:43.409Z,5.71
2023-04-01T02:37:47.834Z,5.72
2023-04-01T02:38:51.086Z,5.72
2023-04-01T02:39:52.645Z,5.75
2023-04-01T02:41:01.722Z,5.76
2023-04-01T02:42:03.382Z,5.77
2023-04-01T02:43:06.912Z,5.71
2023-04-01T02:44:09.471Z,5.70
2023-04-01T02:45:11.206Z,5.67
2023-04-01T02:46:13.016Z,5.66
2023-04-01T02:47:14.770Z,5.60
2023-04-01T02:48:16.430Z,5.58
2023-04-01T02:49:18.116Z,5.57
2023-04-01T02:50:20.543Z,5.58
2023-04-01T02:51:22.213Z,5.49
2023-04-01T02:52:23.891Z,5.49
2023-04-01T02:53:25.917Z,5.49
2023-04-01T02:54:27.572Z,5.45
2023-04-01T02:55:29.217Z,5.44
2023-04-01T02:56:30.923Z,5.43
2023-04-01T02:57:32.735Z,5.53
2023-04-01T02:58:34.473Z,5.41
2023-04-01T02:59:36.092Z,5.38
2023-04-01T03:00:37.959Z,5.34
2023-04-01T03:01:39.682Z,5.37
2023-04-01T03:02:41.470Z,5.39
2023-04-01T03:03:43.168Z,5.36
2023-04-01T03:04:44.890Z,5.31
2023-04-01T03:05:47.040Z,5.34
2023-04-01T03:06:48.654Z,5.38
2023-04-01T03:07:50.371Z,5.36
2023-04-01T03:08:52.148Z,5.37
2023-04-01T03:09:53.877Z,5.38
2023-04-01T03:10:55.861Z,5.37
2023-04-01T03:11:57.595Z,5.39
2023-04-01T03:12:59.345Z,5.35
2023-04-01T03:14:01.161Z,5.32
2023-04-01T03:15:11.386Z,5.26
2023-04-01T03:16:14.373Z,5.26
2023-04-01T03:17:16.053Z,5.23
2023-04-01T03:18:17.816Z,5.14
2023-04-01T03:19:19.708Z,5.19
2023-04-01T03:20:21.784Z,5.15
2023-04-01T03:21:24.818Z,5.17
2023-04-01T03:22:26.532Z,5.17
2023-04-01T03:23:28.250Z,5.18
2023-04-01T03:24:29.946Z,5.20
2023-04-01T03:25:32.045Z,5.26
2023-04-01T03:26:34.047Z,5.37
2023-04-01T03:27:36.735Z,5.41
2023-04-01T03:28:38.422Z,5.45
2023-04-01T03:29:40.224Z,5.45
2023-04-01T03:30:42.041Z,5.43
2023-04-01T03:31:44.479Z,5.39
2023-04-01T03:32:46.226Z,5.47
2023-04-01T03:33:48.347Z,5.44
2023-04-01T03:34:50.032Z,5.48
2023-04-01T03:35:53.293Z,5.50
2023-04-01T03:36:55.599Z,5.51
2023-04-01T03:37:57.289Z,5.53
2023-04-01T03:38:58.929Z,5.57
2023-04-01T03:40:09.912Z,5.58
2023-04-01T03:41:15.589Z,5.54
2023-04-01T03:42:17.588Z,5.59
2023-04-01T03:43:19.282Z,5.61
2023-04-01T03:44:21.033Z,5.63
2023-04-01T03:45:26.114Z,5.65
2023-04-01T03:46:27.861Z,5.71
2023-04-01T03:47:29.800Z,5.71
2023-04-01T03:48:31.798Z,5.73
2023-04-01T03:49:34.226Z,5.73
2023-04-01T03:50:36.331Z,5.78
2023-04-01T03:51:42.084Z,5.79
2023-04-01T03:52:43.783Z,5.80
2023-04-01T03:53:45.797Z,5.86
2023-04-01T03:54:47.466Z,5.85
2023-04-01T03:55:49.423Z,5.81
2023-04-01T03:56:51.296Z,5.78
2023-04-01T03:57:53.080Z,5.80
2023-04-01T03:58:54.744Z,5.79
2023-04-01T03:59:56.681Z,5.76
2023-04-01T04:00:58.383Z,5.83
2023-04-01T04:02:00.838Z,5.79
2023-04-01T04:03:03.213Z,5.76
2023-04-01T04:04:09.242Z,5.81
2023-04-01T04:05:11.698Z,5.77
2023-04-01T04:06:14.344Z,5.83
2023-04-01T04:07:16.126Z,5.80
2023-04-01T04:08:47.427Z,5.81
2023-04-01T04:09:49.326Z,5.81
2023-04-01T04:10:56.767Z,5.79
2023-04-01T04:11:58.578Z,5.81
2023-04-01T04:13:00.485Z,5.76
2023-04-01T04:14:04.752Z,5.73
2023-04-01T04:15:06.986Z,5.75
2023-04-01T04:16:12.092Z,5.75
2023-04-01T04:17:18.286Z,5.77
2023-04-01T04:18:20.025Z,5.79
2023-04-01T04:19:21.789Z,5.76
2023-04-01T04:20:23.522Z,5.76
2023-04-01T04:21:25.386Z,5.84
2023-04-01T04:22:27.092Z,5.79
2023-04-01T04:23:30.828Z,5.85
2023-04-01T04:24:32.542Z,5.82
2023-04-01T04:25:40.776Z,5.78
2023-04-01T04:26:42.464Z,5.79
2023-04-01T04:27:44.552Z,5.76
2023-04-01T04:28:49.114Z,5.77
2023-04-01T04:29:52.173Z,5.75
2023-04-01T04:30:54.514Z,5.81
2023-04-01T04:31:56.424Z,5.76
2023-04-01T04:32:58.163Z,5.81
2023-04-01T04:34:01.832Z,5.84
2023-04-01T04:35:05.205Z,5.86
2023-04-01T04:36:07.286Z,5.86
2023-04-01T04:37:08.950Z,5.84
2023-04-01T04:38:11.813Z,5.84
2023-04-01T04:39:13.477Z,5.86
2023-04-01T04:40:16.934Z,5.85
2023-04-01T04:41:19.987Z,5.88
2023-04-01T04:42:24.543Z,5.85
2023-04-01T04:43:30.933Z,5.89
2023-04-01T04:44:32.671Z,5.89
2023-04-01T04:45:35.737Z,5.98
2023-04-01T04:46:40.268Z,6.00
2023-04-01T04:47:49.938Z,5.99
2023-04-01T04:48:51.729Z,6.01
2023-04-01T04:49:53.378Z,6.03
2023-04-01T04:50:55.037Z,6.01
2023-04-01T04:51:58.795Z,6.06
2023-04-01T04:53:03.737Z,6.07
2023-04-01T04:54:08.167Z,6.07
2023-04-01T04:55:31.323Z,6.09
2023-04-01T04:56:54.081Z,6.10
2023-04-01T04:57:57.097Z,6.10
2023-04-01T04:58:59.476Z,6.09
2023-04-01T05:00:11.284Z,6.13
2023-04-01T05:01:35.815Z,6.15
2023-04-01T05:02:37.633Z,6.15
2023-04-01T05:03:39.542Z,6.20
2023-04-01T05:04:41.311Z,6.14
2023-04-01T05:05:54.826Z,6.21
2023-04-01T05:06:56.754Z,6.20
2023-04-01T05:07:59.130Z,6.16
2023-04-01T05:09:01.114Z,6.15
2023-04-01T05:10:02.821Z,6.18
2023-04-01T05:11:04.463Z,6.20
2023-04-01T05:12:09.037Z,6.23
2023-04-01T05:13:31.225Z,6.25
2023-04-01T05:14:32.886Z,6.28
2023-04-01T05:15:41.881Z,6.22
2023-04-01T05:16:43.499Z,6.22
2023-04-01T05:17:45.338Z,6.15
2023-04-01T05:18:47.706Z,6.13
2023-04-01T05:19:49.714Z,6.11
2023-04-01T05:20:53.883Z,6.11
2023-04-01T05:21:55.712Z,6.14
2023-04-01T05:22:58.422Z,6.16
2023-04-01T05:24:00.194Z,6.21
2023-04-01T05:25:02.419Z,6.18
2023-04-01T05:26:09.557Z,6.19
2023-04-01T05:27:11.256Z,6.24
2023-04-01T05:28:15.756Z,6.27
2023-04-01T05:29:19.706Z,6.23
2023-04-01T05:30:25.021Z,6.22
2023-04-01T05:31:35.780Z,6.20
2023-04-01T05:32:38.769Z,6.13
2023-04-01T05:33:40.710Z,6.14
2023-04-01T05:34:42.521Z,6.13
2023-04-01T05:35:44.383Z,6.18
2023-04-01T05:36:46.317Z,6.15
2023-04-01T05:37:48.029Z,6.13
2023-04-01T05:38:49.925Z,6.19
2023-04-01T05:39:53.271Z,6.14
2023-04-01T05:41:00.583Z,6.22
2023-04-01T05:42:02.408Z,6.26
2023-04-01T05:43:04.287Z,6.30
2023-04-01T05:44:06.224Z,6.31
2023-04-01T05:45:17.024Z,6.34
2023-04-01T05:46:24.794Z,6.41
2023-04-01T05:47:33.159Z,6.47
2023-04-01T05:48:36.063Z,6.62
2023-04-01T05:49:37.751Z,6.66
2023-04-01T05:50:41.779Z,6.69
2023-04-01T05:51:44.504Z,6.76
2023-04-01T05:52:46.542Z,6.81
2023-04-01T05:53:48.444Z,6.85
2023-04-01T05:54:50.319Z,6.71
2023-04-01T05:55:52.976Z,6.72
2023-04-01T05:56:54.702Z,6.68
2023-04-01T05:57:56.495Z,6.61
2023-04-01T05:58:58.119Z,6.64
2023-04-01T06:00:00.053Z,6.61
2023-04-01T06:01:10.284Z,6.70
2023-04-01T06:02:18.271Z,6.75
2023-04-01T06:03:20.132Z,6.93
2023-04-01T06:04:21.854Z,7.09
2023-04-01T06:05:27.906Z,7.21
2023-04-01T06:06:32.728Z,7.56
2023-04-01T06:07:41.446Z,7.63
2023-04-01T06:08:44.060Z,7.69
2023-04-01T06:09:46.284Z,7.60
2023-04-01T06:11:19.713Z,7.90
2023-04-01T06:12:37.679Z,8.17
2023-04-01T06:14:01.675Z,8.19
2023-04-01T06:15:19.219Z,8.27
2023-04-01T06:16:31.169Z,8.02
2023-04-01T06:17:48.143Z,7.85
2023-04-01T06:19:11.960Z,7.81
2023-04-01T06:20:21.712Z,8.60
2023-04-01T06:21:49.744Z,9.24
2023-04-01T06:23:06.537Z,10.52
2023-04-01T06:24:14.009Z,11.04
2023-04-01T06:25:50.574Z,11.91
2023-04-01T06:27:17.174Z,12.25
2023-04-01T06:28:59.009Z,10.83
2023-04-01T06:30:17.863Z,11.11
2023-04-01T06:31:37.493Z,10.35
2023-04-01T06:32:52.762Z,10.22
2023-04-01T06:34:22.123Z,10.91
2023-04-01T06:36:06.221Z,11.24
2023-04-01T06:37:20.953Z,10.57
2023-04-01T06:38:34.754Z,10.04
2023-04-01T06:39:36.453Z,10.61
2023-04-01T06:40:46.791Z,10.07
2023-04-01T06:42:03.425Z,9.83
2023-04-01T06:43:20.429Z,9.41
2023-04-01T06:45:08.295Z,8.81
2023-04-01T06:46:49.251Z,8.69
2023-04-01T06:48:47.512Z,8.50
2023-04-01T06:50:27.590Z,8.77
2023-04-01T06:52:03.057Z,10.15
2023-04-01T06:53:51.397Z,11.95
2023-04-01T06:55:38.700Z,12.43
2023-04-01T06:57:22.142Z,13.03
2023-04-01T06:58:32.220Z,13.50
2023-04-01T06:59:36.548Z,13.88
2023-04-01T07:00:42.205Z,14.02
2023-04-01T07:01:47.537Z,14.51
2023-04-01T07:02:56.600Z,13.83
2023-04-01T07:04:01.583Z,14.86
2023-04-01T07:05:05.715Z,15.34
2023-04-01T07:06:12.471Z,15.53
2023-04-01T07:07:32.273Z,14.89
2023-04-01T07:08:39.953Z,14.40
2023-04-01T07:09:44.800Z,15.05
2023-04-01T07:11:07.091Z,14.85
2023-04-01T07:12:39.090Z,13.99
2023-04-01T07:14:33.693Z,13.57
2023-04-01T07:15:40.727Z,13.82
2023-04-01T07:16:50.365Z,13.15
2023-04-01T07:18:03.632Z,11.84
2023-04-01T07:19:26.953Z,11.77
2023-04-01T07:20:38.408Z,11.45
2023-04-01T07:21:47.706Z,11.61
2023-04-01T07:23:01.197Z,12.66
2023-04-01T07:24:35.661Z,11.50
2023-04-01T07:25:53.252Z,10.80
2023-04-01T07:27:12.059Z,10.44
2023-04-01T07:28:17.635Z,10.13
2023-04-01T07:29:24.018Z,9.73
2023-04-01T07:30:30.406Z,9.68
2023-04-01T07:31:54.262Z,9.65
2023-04-01T07:33:05.855Z,9.55
2023-04-01T07:34:21.076Z,9.38
2023-04-01T07:35:28.398Z,9.30
2023-04-01T07:36:42.097Z,9.00
2023-04-01T07:37:47.415Z,9.14
2023-04-01T07:39:12.280Z,9.26
2023-04-01T07:40:49.145Z,10.11
2023-04-01T07:42:28.919Z,10.22
2023-04-01T07:43:46.123Z,9.57
2023-04-01T07:44:57.980Z,10.93
2023-04-01T07:46:21.168Z,11.05
2023-04-01T07:47:47.206Z,12.60
2023-04-01T07:49:14.803Z,12.21
2023-04-01T07:50:34.063Z,12.38
2023-04-01T07:51:48.791Z,13.69
2023-04-01T07:52:56.051Z,12.33
2023-04-01T07:54:14.309Z,11.49
2023-04-01T07:55:26.130Z,11.26
2023-04-01T07:56:28.290Z,10.76
2023-04-01T07:58:04.290Z,10.77
2023-04-01T07:59:30.734Z,10.13
2023-04-01T08:00:49.132Z,9.80
2023-04-01T08:02:20.301Z,9.68
2023-04-01T08:03:40.086Z,9.96
2023-04-01T08:04:52.436Z,10.25
2023-04-01T08:06:07.832Z,10.29
2023-04-01T08:07:14.710Z,10.03
2023-04-01T08:08:39.614Z,9.88
2023-04-01T08:10:18.253Z,9.75
2023-04-01T08:11:55.809Z,9.56
2023-04-01T08:13:43.187Z,9.53
2023-04-01T08:15:42.925Z,10.45
2023-04-01T08:17:17.039Z,10.76
2023-04-01T08:18:27.940Z,10.84
2023-04-01T08:20:00.989Z,10.63
2023-04-01T08:21:20.590Z,10.11
2023-04-01T08:22:27.739Z,10.16
2023-04-01T08:23:38.255Z,10.68
2023-04-01T08:24:48.462Z,11.96
2023-04-01T08:26:31.392Z,12.13
2023-04-01T08:27:43.009Z,12.04
2023-04-01T08:28:53.560Z,13.28
2023-04-01T08:30:00.965Z,13.55
2023-04-01T08:31:10.459Z,14.05
2023-04-01T08:32:16.060Z,14.69
2023-04-01T08:33:28.908Z,15.04
2023-04-01T08:34:42.432Z,14.04
2023-04-01T08:35:58.975Z,12.86
2023-04-01T08:37:08.769Z,13.14
2023-04-01T08:38:33.730Z,12.48
2023-04-01T08:39:42.857Z,13.84
2023-04-01T08:41:01.449Z,13.89
2023-04-01T08:43:13.414Z,13.07
2023-04-01T08:44:43.991Z,12.92
2023-04-01T08:45:55.373Z,12.37
2023-04-01T08:47:15.623Z,12.18
2023-04-01T08:48:49.536Z,12.60
2023-04-01T08:50:21.082Z,12.12
2023-04-01T08:51:38.562Z,11.56
2023-04-01T08:52:43.211Z,11.75
2023-04-01T08:54:30.582Z,11.76
2023-04-01T08:55:48.199Z,11.44
2023-04-01T08:57:35.693Z,11.11
2023-04-01T08:59:26.504Z,11.07
2023-04-01T09:00:35.073Z,11.74
2023-04-01T09:02:02.203Z,11.56
2023-04-01T09:03:36.307Z,11.14
2023-04-01T09:04:40.812Z,11.05
2023-04-01T09:06:07.372Z,11.05
2023-04-01T09:07:44.982Z,11.08
2023-04-01T09:09:05.597Z,11.08
2023-04-01T09:10:23.142Z,11.01
2023-04-01T09:12:02.519Z,11.12
2023-04-01T09:13:15.050Z,11.27
2023-04-01T09:14:40.808Z,11.50
2023-04-01T09:16:36.664Z,11.32
2023-04-01T09:17:47.322Z,11.30
2023-04-01T09:19:12.596Z,11.19
2023-04-01T09:20:17.073Z,11.40
2023-04-01T09:21:43.174Z,11.76
2023-04-01T09:23:03.529Z,11.59
2023-04-01T09:24:20.472Z,11.38
2023-04-01T09:25:31.487Z,11.04
2023-04-01T09:27:06.327Z,10.99
2023-04-01T09:28:11.524Z,10.73
2023-04-01T09:29:29.368Z,10.63
2023-04-01T09:30:47.931Z,10.78
2023-04-01T09:32:02.871Z,10.79
2023-04-01T09:33:48.606Z,10.89
2023-04-01T09:34:56.772Z,11.12
2023-04-01T09:36:38.010Z,11.29
2023-04-01T09:38:02.796Z,11.21
2023-04-01T09:39:22.720Z,11.06
2023-04-01T09:40:39.769Z,10.94
2023-04-01T09:42:02.199Z,10.81
2023-04-01T09:43:26.565Z,10.67
2023-04-01T09:44:34.628Z,10.74
2023-04-01T09:46:00.075Z,10.95
2023-04-01T09:47:07.799Z,11.16
2023-04-01T09:48:31.783Z,11.08
2023-04-01T09:50:13.289Z,11.20
2023-04-01T09:51:47.124Z,11.10
2023-04-01T09:53:03.315Z,11.10
2023-04-01T09:54:11.482Z,11.04
2023-04-01T09:55:22.105Z,11.01
2023-04-01T09:56:45.450Z,11.03
2023-04-01T09:57:50.294Z,11.00
2023-04-01T09:59:33.147Z,10.95
2023-04-01T10:01:25.491Z,11.08
2023-04-01T10:02:41.495Z,10.92
2023-04-01T10:04:15.489Z,10.88
2023-04-01T10:05:38.170Z,11.06
2023-04-01T10:06:59.713Z,10.97
2023-04-01T10:08:13.992Z,11.02
2023-04-01T10:09:41.778Z,11.13
2023-04-01T10:11:04.930Z,11.38
2023-04-01T10:12:26.057Z,11.40
2023-04-01T10:13:39.892Z,11.31
2023-04-01T10:15:33.385Z,11.14
2023-04-01T10:17:00.494Z,10.65
2023-04-01T10:18:34.000Z,10.58
2023-04-01T10:20:03.415Z,10.48
2023-04-01T10:21:32.128Z,10.66
2023-04-01T10:22:55.593Z,10.55
2023-04-01T10:24:21.847Z,10.41
2023-04-01T10:26:04.251Z,10.44
2023-04-01T10:27:17.686Z,10.32
2023-04-01T10:29:03.879Z,10.13
2023-04-01T10:30:39.601Z,9.89
2023-04-01T10:32:06.344Z,9.83
2023-04-01T10:33:45.451Z,9.94
2023-04-01T10:35:02.397Z,10.02
2023-04-01T10:36:16.234Z,9.90
2023-04-01T10:37:38.719Z,9.85
2023-04-01T10:38:52.872Z,9.69
2023-04-01T10:40:26.538Z,9.46
2023-04-01T10:42:20.219Z,9.41
2023-04-01T10:44:12.639Z,9.14
2023-04-01T10:45:35.639Z,8.98
2023-04-01T10:46:53.024Z,8.87
2023-04-01T10:47:54.952Z,8.63
2023-04-01T10:49:12.841Z,8.52
2023-04-01T10:50:26.238Z,8.53
2023-04-01T10:51:37.478Z,8.51
2023-04-01T10:53:06.821Z,8.45
2023-04-01T10:55:12.334Z,8.32
2023-04-01T10:56:41.767Z,8.23
2023-04-01T10:58:10.567Z,8.10
2023-04-01T11:00:02.641Z,7.87
2023-04-01T11:02:11.578Z,7.91
2023-04-01T11:04:23.954Z,7.73
2023-04-01T11:05:55.836Z,7.69
2023-04-01T11:07:30.392Z,7.72
2023-04-01T11:09:06.220Z,7.70
2023-04-01T11:10:11.530Z,7.55
2023-04-01T11:11:28.737Z,7.60
2023-04-01T11:13:01.422Z,7.49
2023-04-01T11:14:21.464Z,7.44
2023-04-01T11:15:47.632Z,7.47
2023-04-01T11:17:14.228Z,7.43
2023-04-01T11:18:34.303Z,7.38
2023-04-01T11:20:04.650Z,7.43
2023-04-01T11:21:27.958Z,7.33
2023-04-01T11:23:08.866Z,7.46
2023-04-01T11:24:39.713Z,7.46
2023-04-01T11:26:10.486Z,7.45
2023-04-01T11:27:46.046Z,7.56
2023-04-01T11:29:01.904Z,7.54
2023-04-01T11:30:42.502Z,7.45
2023-04-01T11:31:55.343Z,7.51
2023-04-01T11:33:03.948Z,7.50
2023-04-01T11:34:30.220Z,7.53
2023-04-01T11:35:55.957Z,7.48
2023-04-01T11:37:00.762Z,7.51
2023-04-01T11:38:24.813Z,7.46
2023-04-01T11:39:58.183Z,7.51
2023-04-01T11:41:41.601Z,7.58
2023-04-01T11:43:33.007Z,7.59
2023-04-01T11:45:44.777Z,7.69
2023-04-01T11:47:24.832Z,7.69
2023-04-01T11:48:50.364Z,7.75
2023-04-01T11:50:04.972Z,7.80
2023-04-01T11:51:16.685Z,7.84
2023-04-01T11:52:30.480Z,7.85
2023-04-01T11:53:35.278Z,7.83
2023-04-01T11:54:55.780Z,7.89
2023-04-01T11:55:57.320Z,7.94
2023-04-01T11:57:32.510Z,7.87
2023-04-01T11:58:49.592Z,7.83
2023-04-01T12:00:04.511Z,7.80
2023-04-01T12:01:20.783Z,7.86
2023-04-01T12:02:40.988Z,7.88
2023-04-01T12:03:59.977Z,7.96
2023-04-01T12:05:01.929Z,7.87
2023-04-01T12:06:20.468Z,8.03
2023-04-01T12:07:46.472Z,8.11
2023-04-01T12:08:48.058Z,8.08
2023-04-01T12:09:58.004Z,8.16
2023-04-01T12:11:08.135Z,8.11
2023-04-01T12:12:28.334Z,8.11
2023-04-01T12:14:11.101Z,8.05
2023-04-01T12:15:18.992Z,7.99
2023-04-01T12:16:42.582Z,7.99
2023-04-01T12:18:13.923Z,8.14
2023-04-01T12:19:30.617Z,8.17
2023-04-01T12:21:26.024Z,8.13
2023-04-01T12:22:51.968Z,8.22
2023-04-01T12:24:21.556Z,8.16
2023-04-01T12:25:49.796Z,8.18
2023-04-01T12:27:13.152Z,8.17
2023-04-01T12:28:17.848Z,8.23
2023-04-01T12:29:22.416Z,8.27
2023-04-01T12:30:54.439Z,8.34
2023-04-01T12:32:24.620Z,8.26
2023-04-01T12:33:32.026Z,8.07
2023-04-01T12:34:59.176Z,8.07
2023-04-01T12:36:09.442Z,8.07
2023-04-01T12:37:11.087Z,8.11
2023-04-01T12:38:43.650Z,8.16
2023-04-01T12:40:23.877Z,8.23
2023-04-01T12:41:49.779Z,8.20
2023-04-01T12:42:56.989Z,8.19
2023-04-01T12:43:58.537Z,8.09
2023-04-01T12:45:24.526Z,8.08
2023-04-01T12:46:51.012Z,7.98
2023-04-01T12:47:57.437Z,7.85
2023-04-01T12:49:30.265Z,7.89
2023-04-01T12:51:09.365Z,7.96
2023-04-01T12:52:13.369Z,7.85
2023-04-01T12:53:23.811Z,7.98
2023-04-01T12:54:25.425Z,8.04
2023-04-01T12:55:40.043Z,8.07
2023-04-01T12:57:06.938Z,8.08
2023-04-01T12:58:45.797Z,8.08
2023-04-01T13:00:00.237Z,8.18
2023-04-01T13:01:09.656Z,8.12
2023-04-01T13:02:48.468Z,8.30
2023-04-01T13:03:50.184Z,8.46
2023-04-01T13:05:10.652Z,8.52
2023-04-01T13:06:26.623Z,8.48
2023-04-01T13:07:47.584Z,8.38
2023-04-01T13:09:07.919Z,8.34
2023-04-01T13:10:21.848Z,8.39
2023-04-01T13:11:51.396Z,8.47
2023-04-01T13:13:13.221Z,8.47
2023-04-01T13:14:31.704Z,8.39
2023-04-01T13:15:48.423Z,8.41
2023-04-01T13:17:18.848Z,8.38
2023-04-01T13:18:26.492Z,8.46
2023-04-01T13:20:04.237Z,8.58
2023-04-01T13:21:09.867Z,8.71
2023-04-01T13:22:15.773Z,8.82
2023-04-01T13:23:48.393Z,8.94
2023-04-01T13:25:18.064Z,9.11
2023-04-01T13:26:23.871Z,9.35
2023-04-01T13:27:52.055Z,9.42
2023-04-01T13:29:15.677Z,9.27
2023-04-01T13:30:26.772Z,9.41
2023-04-01T13:31:56.206Z,9.31
2023-04-01T13:33:34.432Z,9.38
2023-04-01T13:34:53.645Z,9.09
2023-04-01T13:36:36.824Z,9.18
2023-04-01T13:38:09.344Z,9.27
2023-04-01T13:39:44.571Z,9.05
2023-04-01T13:41:01.660Z,9.05
2023-04-01T13:42:26.008Z,9.07
2023-04-01T13:43:33.362Z,9.10
2023-04-01T13:44:49.177Z,9.01
2023-04-01T13:46:02.711Z,9.05
2023-04-01T13:47:10.259Z,9.10
2023-04-01T13:48:20.868Z,9.24
2023-04-01T13:49:25.394Z,9.15
2023-04-01T13:50:35.997Z,9.32
2023-04-01T13:52:28.394Z,9.29
2023-04-01T13:53:33.668Z,9.35
2023-04-01T13:54:53.837Z,9.26
2023-04-01T13:56:01.632Z,9.28
2023-04-01T13:57:27.405Z,9.22
2023-04-01T13:58:34.779Z,9.20
2023-04-01T13:59:58.299Z,9.28
2023-04-01T14:01:06.085Z,9.29
2023-04-01T14:02:45.739Z,9.38
2023-04-01T14:04:23.201Z,9.32
2023-04-01T14:05:41.973Z,9.33
2023-04-01T14:07:13.894Z,9.17
2023-04-01T14:08:30.752Z,9.34
2023-04-01T14:09:41.891Z,9.37
2023-04-01T14:11:28.600Z,9.30
2023-04-01T14:12:32.915Z,9.39
2023-04-01T14:14:16.588Z,9.46
2023-04-01T14:15:37.015Z,9.42
2023-04-01T14:17:03.020Z,9.47
2023-04-01T14:18:25.015Z,9.46
2023-04-01T14:19:48.079Z,9.59
2023-04-01T14:21:08.245Z,9.53
2023-04-01T14:22:35.289Z,9.41
2023-04-01T14:23:43.491Z,9.26
2023-04-01T14:25:23.820Z,9.23
2023-04-01T14:26:57.609Z,8.93
2023-04-01T14:28:26.580Z,8.98
2023-04-01T14:29:32.120Z,9.04
2023-04-01T14:30:48.598Z,8.94
2023-04-01T14:32:03.846Z,8.80
2023-04-01T14:33:23.767Z,8.80
2023-04-01T14:34:31.240Z,8.86
2023-04-01T14:35:54.844Z,8.94
2023-04-01T14:37:34.095Z,8.89
2023-04-01T14:38:54.148Z,8.77
2023-04-01T14:40:22.099Z,8.74
2023-04-01T14:41:48.091Z,8.81
2023-04-01T14:43:08.488Z,8.82
2023-04-01T14:44:25.922Z,8.75
2023-04-01T14:45:54.922Z,8.66
2023-04-01T14:47:17.910Z,8.56
2023-04-01T14:48:36.217Z,8.57
2023-04-01T14:49:41.419Z,8.57
2023-04-01T14:50:48.801Z,8.62
2023-04-01T14:51:51.191Z,8.62
2023-04-01T14:53:19.041Z,8.71
2023-04-01T14:54:36.506Z,8.78
2023-04-01T14:55:43.754Z,8.83
2023-04-01T14:56:49.075Z,8.97
2023-04-01T14:58:14.747Z,9.05
2023-04-01T14:59:16.612Z,9.08
2023-04-01T15:00:19.367Z,9.15
2023-04-01T15:01:35.727Z,9.16
2023-04-01T15:03:02.347Z,9.19
2023-04-01T15:04:51.856Z,9.23
2023-04-01T15:06:11.934Z,9.33
2023-04-01T15:07:28.769Z,9.46
2023-04-01T15:08:33.882Z,9.35
2023-04-01T15:10:01.053Z,9.30
2023-04-01T15:11:13.561Z,9.39
2023-04-01T15:12:54.311Z,9.39
2023-04-01T15:14:08.341Z,9.49
2023-04-01T15:15:18.942Z,9.44
2023-04-01T15:16:41.640Z,9.48
2023-04-01T15:18:06.249Z,9.48
2023-04-01T15:19:14.199Z,9.48
2023-04-01T15:21:08.974Z,9.47
2023-04-01T15:22:51.959Z,9.34
2023-04-01T15:24:09.028Z,9.27
2023-04-01T15:25:49.184Z,9.09
2023-04-01T15:27:14.159Z,9.11
2023-04-01T15:28:22.133Z,9.15
2023-04-01T15:29:44.785Z,9.06
2023-04-01T15:30:55.048Z,9.10
2023-04-01T15:32:12.314Z,9.03
2023-04-01T15:33:26.018Z,9.02
2023-04-01T15:35:04.460Z,9.09
2023-04-01T15:36:30.380Z,9.20
2023-04-01T15:37:32.016Z,9.12
2023-04-01T15:38:59.021Z,9.17
2023-04-01T15:40:21.889Z,9.15
2023-04-01T15:41:44.664Z,9.12
2023-04-01T15:42:49.264Z,9.14
2023-04-01T15:43:53.308Z,9.20
2023-04-01T15:45:05.798Z,9.22
2023-04-01T15:46:31.274Z,9.13
2023-04-01T15:47:59.239Z,9.24
2023-04-01T15:49:23.696Z,9.26
2023-04-01T15:50:52.482Z,9.21
2023-04-01T15:52:04.857Z,9.25
2023-04-01T15:53:27.850Z,9.18
2023-04-01T15:54:53.610Z,9.11
2023-04-01T15:56:01.035Z,8.89
2023-04-01T15:57:31.315Z,8.87
2023-04-01T15:58:49.785Z,8.76
2023-04-01T16:00:12.814Z,8.71
2023-04-01T16:01:43.460Z,8.66
2023-04-01T16:02:47.325Z,8.61
2023-04-01T16:03:51.816Z,8.67
2023-04-01T16:05:04.234Z,8.59
2023-04-01T16:06:19.389Z,8.65
2023-04-01T16:07:48.659Z,8.67
2023-04-01T16:09:11.925Z,8.58
2023-04-01T16:10:28.919Z,8.55
2023-04-01T16:11:55.782Z,8.54
2023-04-01T16:13:28.335Z,8.55
2023-04-01T16:14:38.717Z,8.51
2023-04-01T16:15:57.402Z,8.55
2023-04-01T16:17:20.854Z,8.59
2023-04-01T16:18:37.495Z,8.55
2023-04-01T16:19:51.041Z,8.54
2023-04-01T16:21:11.595Z,8.48
2023-04-01T16:22:35.181Z,8.51
2023-04-01T16:23:59.345Z,8.45
2023-04-01T16:25:21.646Z,8.56
2023-04-01T16:26:36.659Z,8.61